sensor_id;sensor_type;location;lat;lon;timestamp;pressure;altitude;pressure_sealevel;temperature;humidity
38939;BME280;24211;49.980;19.776;2023-01-16T00:01:57;98506.13;;;5.58;100.00
38939;BME280;24211;49.980;19.776;2023-01-16T00:04:25;98495.53;;;5.58;100.00
38939;BME280;24211;49.980;19.776;2023-01-16T00:06:53;98497.16;;;5.59;100.00
38939;BME280;24211;49.980;19.776;2023-01-16T00:09:21;98509.41;;;5.60;100.00
38939;BME280;24211;49.980;19.776;2023-01-16T00:11:48;98518.38;;;5.59;100.00
38939;BME280;24211;49.980;19.776;2023-01-16T00:14:15;98502.47;;;5.59;100.00
38939;BME280;24211;49.980;19.776;2023-01-16T00:16:42;98498.63;;;5.55;100.00
38939;BME280;24211;49.980;19.776;2023-01-16T00:19:09;98491.09;;;5.52;100.00
38939;BME280;24211;49.980;19.776;2023-01-16T00:21:37;98489.03;;;5.54;100.00
38939;BME280;24211;49.980;19.776;2023-01-16T00:24:04;98484.16;;;5.51;100.00
38939;BME280;24211;49.980;19.776;2023-01-16T00:26:33;98493.16;;;5.50;100.00
38939;BME280;24211;49.980;19.776;2023-01-16T00:29:00;98484.59;;;5.48;100.00
38939;BME280;24211;49.980;19.776;2023-01-16T00:31:29;98489.91;;;5.48;100.00
38939;BME280;24211;49.980;19.776;2023-01-16T00:33:57;98493.16;;;5.50;100.00
38939;BME280;24211;49.980;19.776;2023-01-16T00:36:24;98481.34;;;5.46;100.00
38939;BME280;24211;49.980;19.776;2023-01-16T00:38:51;98479.72;;;5.45;100.00
38939;BME280;24211;49.980;19.776;2023-01-16T00:41:18;98483.00;;;5.40;100.00
38939;BME280;24211;49.980;19.776;2023-01-16T00:43:45;98477.91;;;5.39;100.00
38939;BME280;24211;49.980;19.776;2023-01-16T00:46:13;98487.91;;;5.37;100.00
38939;BME280;24211;49.980;19.776;2023-01-16T00:48:40;98475.06;;;5.34;100.00
38939;BME280;24211;49.980;19.776;2023-01-16T00:51:07;98483.03;;;5.34;100.00
38939;BME280;24211;49.980;19.776;2023-01-16T00:53:35;98481.00;;;5.36;100.00
38939;BME280;24211;49.980;19.776;2023-01-16T00:56:03;98499.75;;;5.34;100.00
38939;BME280;24211;49.980;19.776;2023-01-16T00:58:30;98494.84;;;5.31;100.00
38939;BME280;24211;49.980;19.776;2023-01-16T01:00:59;98492.66;;;5.28;100.00
38939;BME280;24211;49.980;19.776;2023-01-16T01:03:28;98500.19;;;5.24;100.00
38939;BME280;24211;49.980;19.776;2023-01-16T01:05:56;98489.59;;;5.24;100.00
38939;BME280;24211;49.980;19.776;2023-01-16T01:08:23;98493.69;;;5.20;100.00
38939;BME280;24211;49.980;19.776;2023-01-16T01:10:51;98492.47;;;5.16;100.00
38939;BME280;24211;49.980;19.776;2023-01-16T01:13:18;98492.91;;;5.13;100.00
38939;BME280;24211;49.980;19.776;2023-01-16T01:15:45;98479.06;;;5.11;100.00
38939;BME280;24211;49.980;19.776;2023-01-16T01:18:12;98489.25;;;5.08;100.00
38939;BME280;24211;49.980;19.776;2023-01-16T01:20:39;98487.25;;;5.03;100.00
38939;BME280;24211;49.980;19.776;2023-01-16T01:23:07;98482.16;;;5.02;100.00
38939;BME280;24211;49.980;19.776;2023-01-16T01:25:37;98480.72;;;4.99;100.00
38939;BME280;24211;49.980;19.776;2023-01-16T01:28:05;98479.13;;;4.98;100.00
38939;BME280;24211;49.980;19.776;2023-01-16T01:30:32;98475.06;;;4.96;100.00
38939;BME280;24211;49.980;19.776;2023-01-16T01:32:59;98476.28;;;4.93;100.00
38939;BME280;24211;49.980;19.776;2023-01-16T01:35:27;98467.75;;;4.91;100.00
38939;BME280;24211;49.980;19.776;2023-01-16T01:37:54;98453.88;;;4.89;100.00
38939;BME280;24211;49.980;19.776;2023-01-16T01:40:22;98454.31;;;4.86;100.00
38939;BME280;24211;49.980;19.776;2023-01-16T01:42:49;98452.69;;;4.85;100.00
38939;BME280;24211;49.980;19.776;2023-01-16T01:45:24;98466.31;;;4.82;100.00
38939;BME280;24211;49.980;19.776;2023-01-16T01:51:07;98470.22;;;4.73;100.00
38939;BME280;24211;49.980;19.776;2023-01-16T01:54:05;98470.63;;;4.70;100.00
38939;BME280;24211;49.980;19.776;2023-01-16T01:56:43;98468.41;;;4.67;100.00
38939;BME280;24211;49.980;19.776;2023-01-16T01:59:19;98464.56;;;4.63;100.00
38939;BME280;24211;49.980;19.776;2023-01-16T02:01:48;98458.06;;;4.59;100.00
38939;BME280;24211;49.980;19.776;2023-01-16T02:04:19;98461.72;;;4.58;100.00
38939;BME280;24211;49.980;19.776;2023-01-16T02:06:57;98443.59;;;4.55;100.00
38939;BME280;24211;49.980;19.776;2023-01-16T02:09:26;98451.53;;;4.55;100.00
38939;BME280;24211;49.980;19.776;2023-01-16T02:11:58;98435.66;;;4.55;100.00
38939;BME280;24211;49.980;19.776;2023-01-16T02:14:31;98434.88;;;4.48;100.00
38939;BME280;24211;49.980;19.776;2023-01-16T02:17:15;98424.69;;;4.45;100.00
38939;BME280;24211;49.980;19.776;2023-01-16T02:20:21;98429.59;;;4.41;100.00
38939;BME280;24211;49.980;19.776;2023-01-16T02:26:12;98427.19;;;4.27;100.00
38939;BME280;24211;49.980;19.776;2023-01-16T02:31:43;98408.47;;;4.22;100.00
38939;BME280;24211;49.980;19.776;2023-01-16T02:34:31;98399.94;;;4.20;100.00
38939;BME280;24211;49.980;19.776;2023-01-16T02:37:13;98405.66;;;4.17;100.00
38939;BME280;24211;49.980;19.776;2023-01-16T02:40:16;98408.69;;;4.14;100.00
38939;BME280;24211;49.980;19.776;2023-01-16T02:43:19;98413.38;;;4.12;100.00
38939;BME280;24211;49.980;19.776;2023-01-16T02:46:01;98401.59;;;4.08;100.00
38939;BME280;24211;49.980;19.776;2023-01-16T02:48:47;98399.34;;;4.05;100.00
38939;BME280;24211;49.980;19.776;2023-01-16T02:51:37;98411.75;;;4.04;100.00
38939;BME280;24211;49.980;19.776;2023-01-16T02:54:30;98418.25;;;4.02;100.00
38939;BME280;24211;49.980;19.776;2023-01-16T02:57:05;98425.59;;;4.00;100.00
38939;BME280;24211;49.980;19.776;2023-01-16T02:59:34;98417.06;;;3.97;100.00
38939;BME280;24211;49.980;19.776;2023-01-16T03:02:02;98419.09;;;3.95;100.00
38939;BME280;24211;49.980;19.776;2023-01-16T03:07:45;98413.19;;;3.93;100.00
38939;BME280;24211;49.980;19.776;2023-01-16T03:10:49;98414.63;;;3.89;100.00
38939;BME280;24211;49.980;19.776;2023-01-16T03:13:38;98408.13;;;3.85;100.00
38939;BME280;24211;49.980;19.776;2023-01-16T03:16:36;98400.59;;;3.82;100.00
38939;BME280;24211;49.980;19.776;2023-01-16T03:19:53;98391.03;;;3.81;100.00
38939;BME280;24211;49.980;19.776;2023-01-16T03:22:54;98399.34;;;3.78;100.00
38939;BME280;24211;49.980;19.776;2023-01-16T03:26:24;98384.53;;;3.77;100.00
38939;BME280;24211;49.980;19.776;2023-01-16T03:28:50;98386.13;;;3.78;100.00
38939;BME280;24211;49.980;19.776;2023-01-16T03:31:29;98386.34;;;3.77;100.00
38939;BME280;24211;49.980;19.776;2023-01-16T03:37:30;98397.34;;;3.80;100.00
38939;BME280;24211;49.980;19.776;2023-01-16T03:40:02;98399.56;;;3.77;100.00
38939;BME280;24211;49.980;19.776;2023-01-16T03:42:41;98399.56;;;3.77;100.00
38939;BME280;24211;49.980;19.776;2023-01-16T03:45:33;98400.78;;;3.74;100.00
38939;BME280;24211;49.980;19.776;2023-01-16T03:48:22;98399.19;;;3.73;100.00
38939;BME280;24211;49.980;19.776;2023-01-16T03:50:56;98402.00;;;3.72;100.00
38939;BME280;24211;49.980;19.776;2023-01-16T03:53:32;98402.81;;;3.72;100.00
38939;BME280;24211;49.980;19.776;2023-01-16T03:56:13;98399.97;;;3.67;100.00
38939;BME280;24211;49.980;19.776;2023-01-16T03:58:52;98408.50;;;3.69;100.00
38939;BME280;24211;49.980;19.776;2023-01-16T04:01:26;98408.91;;;3.66;100.00
38939;BME280;24211;49.980;19.776;2023-01-16T04:04:14;98400.78;;;3.61;100.00
38939;BME280;24211;49.980;19.776;2023-01-16T04:06:52;98390.81;;;3.57;100.00
38939;BME280;24211;49.980;19.776;2023-01-16T04:09:31;98382.91;;;3.57;100.00
38939;BME280;24211;49.980;19.776;2023-01-16T04:12:02;98373.97;;;3.58;100.00
38939;BME280;24211;49.980;19.776;2023-01-16T04:14:33;98370.91;;;3.54;100.00
38939;BME280;24211;49.980;19.776;2023-01-16T04:17:03;98362.19;;;3.54;100.00
38939;BME280;24211;49.980;19.776;2023-01-16T04:19:33;98364.00;;;3.53;100.00
38939;BME280;24211;49.980;19.776;2023-01-16T04:22:18;98361.38;;;3.53;100.00
38939;BME280;24211;49.980;19.776;2023-01-16T04:24:47;98367.66;;;3.52;100.00
38939;BME280;24211;49.980;19.776;2023-01-16T04:27:15;98366.25;;;3.56;100.00
38939;BME280;24211;49.980;19.776;2023-01-16T04:29:43;98362.97;;;3.54;100.00
38939;BME280;24211;49.980;19.776;2023-01-16T04:32:10;98362.97;;;3.54;100.00
38939;BME280;24211;49.980;19.776;2023-01-16T04:34:38;98358.91;;;3.45;100.00
38939;BME280;24211;49.980;19.776;2023-01-16T04:37:05;98359.13;;;3.44;100.00
38939;BME280;24211;49.980;19.776;2023-01-16T04:39:33;98365.41;;;3.49;100.00
38939;BME280;24211;49.980;19.776;2023-01-16T04:42:00;98370.28;;;3.52;100.00
38939;BME280;24211;49.980;19.776;2023-01-16T04:44:27;98363.41;;;3.51;100.00
38939;BME280;24211;49.980;19.776;2023-01-16T04:46:54;98363.41;;;3.51;100.00
38939;BME280;24211;49.980;19.776;2023-01-16T04:49:21;98355.66;;;3.50;100.00
38939;BME280;24211;49.980;19.776;2023-01-16T04:51:48;98348.78;;;3.49;100.00
38939;BME280;24211;49.980;19.776;2023-01-16T04:54:18;98342.66;;;3.48;100.00
38939;BME280;24211;49.980;19.776;2023-01-16T04:56:46;98341.03;;;3.47;100.00
38939;BME280;24211;49.980;19.776;2023-01-16T04:59:17;98341.63;;;3.49;100.00
38939;BME280;24211;49.980;19.776;2023-01-16T05:01:45;98338.22;;;3.49;100.00
38939;BME280;24211;49.980;19.776;2023-01-16T05:04:15;98338.00;;;3.50;100.00
38939;BME280;24211;49.980;19.776;2023-01-16T05:06:42;98339.00;;;3.49;100.00
38939;BME280;24211;49.980;19.776;2023-01-16T05:09:09;98338.22;;;3.49;100.00
38939;BME280;24211;49.980;19.776;2023-01-16T05:11:36;98334.16;;;3.46;100.00
38939;BME280;24211;49.980;19.776;2023-01-16T05:14:04;98328.03;;;3.46;100.00
38939;BME280;24211;49.980;19.776;2023-01-16T05:16:36;98322.38;;;3.49;100.00
38939;BME280;24211;49.980;19.776;2023-01-16T05:19:04;98314.63;;;3.47;100.00
38939;BME280;24211;49.980;19.776;2023-01-16T05:21:31;98311.16;;;3.47;100.00
38939;BME280;24211;49.980;19.776;2023-01-16T05:23:59;98297.97;;;3.47;100.00
38939;BME280;24211;49.980;19.776;2023-01-16T05:26:26;98293.91;;;3.44;100.00
38939;BME280;24211;49.980;19.776;2023-01-16T05:28:53;98297.16;;;3.46;100.00
38939;BME280;24211;49.980;19.776;2023-01-16T05:31:20;98299.19;;;3.44;100.00
38939;BME280;24211;49.980;19.776;2023-01-16T05:33:47;98302.84;;;3.43;100.00
38939;BME280;24211;49.980;19.776;2023-01-16T05:36:14;98301.22;;;3.42;100.00
38939;BME280;24211;49.980;19.776;2023-01-16T05:38:42;98297.56;;;3.43;100.00
38939;BME280;24211;49.980;19.776;2023-01-16T05:41:09;98295.94;;;3.42;100.00
38939;BME280;24211;49.980;19.776;2023-01-16T05:43:36;98287.00;;;3.43;100.00
38939;BME280;24211;49.980;19.776;2023-01-16T05:46:04;98286.59;;;3.46;100.00
38939;BME280;24211;49.980;19.776;2023-01-16T05:48:31;98293.72;;;3.46;100.00
38939;BME280;24211;49.980;19.776;2023-01-16T05:51:24;98280.50;;;3.46;100.00
38939;BME280;24211;49.980;19.776;2023-01-16T05:53:51;98279.69;;;3.45;100.00
38939;BME280;24211;49.980;19.776;2023-01-16T05:56:22;98288.63;;;3.44;100.00
38939;BME280;24211;49.980;19.776;2023-01-16T05:58:49;98281.72;;;3.43;100.00
38939;BME280;24211;49.980;19.776;2023-01-16T06:01:16;98276.44;;;3.43;100.00
38939;BME280;24211;49.980;19.776;2023-01-16T06:03:44;98289.66;;;3.43;100.00
38939;BME280;24211;49.980;19.776;2023-01-16T06:06:11;98280.91;;;3.43;100.00
38939;BME280;24211;49.980;19.776;2023-01-16T06:08:38;98271.16;;;3.43;100.00
38939;BME280;24211;49.980;19.776;2023-01-16T06:11:05;98272.78;;;3.44;100.00
38939;BME280;24211;49.980;19.776;2023-01-16T06:13:33;98265.06;;;3.43;100.00
38939;BME280;24211;49.980;19.776;2023-01-16T06:16:00;98276.44;;;3.43;100.00
38939;BME280;24211;49.980;19.776;2023-01-16T06:18:27;98272.78;;;3.44;100.00
38939;BME280;24211;49.980;19.776;2023-01-16T06:20:54;98272.78;;;3.44;100.00
38939;BME280;24211;49.980;19.776;2023-01-16T06:23:21;98260.59;;;3.43;100.00
38939;BME280;24211;49.980;19.776;2023-01-16T06:25:50;98262.63;;;3.41;100.00
38939;BME280;24211;49.980;19.776;2023-01-16T06:28:17;98258.16;;;3.42;100.00
38939;BME280;24211;49.980;19.776;2023-01-16T06:30:44;98257.13;;;3.43;100.00
38939;BME280;24211;49.980;19.776;2023-01-16T06:33:11;98262.41;;;3.43;100.00
38939;BME280;24211;49.980;19.776;2023-01-16T06:35:38;98258.97;;;3.42;100.00
38939;BME280;24211;49.980;19.776;2023-01-16T06:38:06;98255.72;;;3.40;100.00
38939;BME280;24211;49.980;19.776;2023-01-16T06:40:33;98261.00;;;3.40;100.00
38939;BME280;24211;49.980;19.776;2023-01-16T06:43:00;98261.00;;;3.40;100.00
38939;BME280;24211;49.980;19.776;2023-01-16T06:45:27;98257.34;;;3.41;100.00
38939;BME280;24211;49.980;19.776;2023-01-16T06:47:55;98245.16;;;3.40;100.00
38939;BME280;24211;49.980;19.776;2023-01-16T06:50:22;98253.28;;;3.39;100.00
38939;BME280;24211;49.980;19.776;2023-01-16T06:52:49;98248.81;;;3.39;100.00
38939;BME280;24211;49.980;19.776;2023-01-16T06:55:16;98250.84;;;3.37;100.00
38939;BME280;24211;49.980;19.776;2023-01-16T06:57:45;98244.97;;;3.35;100.00
38939;BME280;24211;49.980;19.776;2023-01-16T07:00:13;98248.19;;;3.37;100.00
38939;BME280;24211;49.980;19.776;2023-01-16T07:02:40;98246.16;;;3.39;100.00
38939;BME280;24211;49.980;19.776;2023-01-16T07:05:09;98250.44;;;3.40;100.00
38939;BME280;24211;49.980;19.776;2023-01-16T07:07:37;98242.91;;;3.37;100.00
38939;BME280;24211;49.980;19.776;2023-01-16T07:10:05;98240.28;;;3.37;100.00
38939;BME280;24211;49.980;19.776;2023-01-16T07:12:32;98235.00;;;3.37;100.00
38939;BME280;24211;49.980;19.776;2023-01-16T07:14:59;98230.75;;;3.36;100.00
38939;BME280;24211;49.980;19.776;2023-01-16T07:17:45;98233.38;;;3.36;100.00
38939;BME280;24211;49.980;19.776;2023-01-16T07:20:31;98228.94;;;3.37;100.00
38939;BME280;24211;49.980;19.776;2023-01-16T07:23:24;98235.81;;;3.38;100.00
38939;BME280;24211;49.980;19.776;2023-01-16T07:25:56;98242.31;;;3.35;100.00
38939;BME280;24211;49.980;19.776;2023-01-16T07:28:25;98238.25;;;3.33;100.00
38939;BME280;24211;49.980;19.776;2023-01-16T07:30:52;98238.25;;;3.33;100.00
38939;BME280;24211;49.980;19.776;2023-01-16T07:33:19;98234.59;;;3.34;100.00
38939;BME280;24211;49.980;19.776;2023-01-16T07:35:47;98235.44;;;3.34;100.00
38939;BME280;24211;49.980;19.776;2023-01-16T07:38:14;98233.78;;;3.33;100.00
38939;BME280;24211;49.980;19.776;2023-01-16T07:40:41;98229.31;;;3.34;100.00
38939;BME280;24211;49.980;19.776;2023-01-16T07:43:08;98231.75;;;3.35;100.00
38939;BME280;24211;49.980;19.776;2023-01-16T07:45:35;98229.31;;;3.34;100.00
38939;BME280;24211;49.980;19.776;2023-01-16T07:48:03;98223.22;;;3.33;100.00
38939;BME280;24211;49.980;19.776;2023-01-16T07:50:30;98228.50;;;3.33;100.00
38939;BME280;24211;49.980;19.776;2023-01-16T07:52:58;98229.09;;;3.35;100.00
38939;BME280;24211;49.980;19.776;2023-01-16T07:55:26;98224.88;;;3.34;100.00
38939;BME280;24211;49.980;19.776;2023-01-16T07:57:53;98223.22;;;3.33;100.00
38939;BME280;24211;49.980;19.776;2023-01-16T08:00:21;98214.72;;;3.31;100.00
38939;BME280;24211;49.980;19.776;2023-01-16T08:02:49;98213.47;;;3.27;100.00
38939;BME280;24211;49.980;19.776;2023-01-16T08:05:16;98210.84;;;3.27;100.00
38939;BME280;24211;49.980;19.776;2023-01-16T08:07:44;98203.13;;;3.25;100.00
38939;BME280;24211;49.980;19.776;2023-01-16T08:10:13;98198.06;;;3.24;100.00
38939;BME280;24211;49.980;19.776;2023-01-16T08:12:40;98189.50;;;3.22;100.00
38939;BME280;24211;49.980;19.776;2023-01-16T08:15:08;98183.81;;;3.25;100.00
38939;BME280;24211;49.980;19.776;2023-01-16T08:17:38;98181.78;;;3.27;100.00
38939;BME280;24211;49.980;19.776;2023-01-16T08:20:08;98178.16;;;3.28;100.00
38939;BME280;24211;49.980;19.776;2023-01-16T08:22:49;98168.41;;;3.28;100.00
38939;BME280;24211;49.980;19.776;2023-01-16T08:25:23;98168.38;;;3.22;100.00
38939;BME280;24211;49.980;19.776;2023-01-16T08:27:51;98169.22;;;3.16;100.00
38939;BME280;24211;49.980;19.776;2023-01-16T08:30:18;98162.72;;;3.18;100.00
38939;BME280;24211;49.980;19.776;2023-01-16T08:32:46;98154.19;;;3.23;100.00
38939;BME280;24211;49.980;19.776;2023-01-16T08:35:13;98146.88;;;3.25;100.00
38939;BME280;24211;49.980;19.776;2023-01-16T08:37:48;98146.69;;;3.26;100.00
38939;BME280;24211;49.980;19.776;2023-01-16T08:40:17;98141.19;;;3.28;100.00
38939;BME280;24211;49.980;19.776;2023-01-16T08:42:46;98140.19;;;3.29;100.00
38939;BME280;24211;49.980;19.776;2023-01-16T08:45:32;98132.25;;;3.29;100.00
38939;BME280;24211;49.980;19.776;2023-01-16T08:48:24;98133.84;;;3.30;100.00
38939;BME280;24211;49.980;19.776;2023-01-16T08:51:17;98125.34;;;3.28;100.00
38939;BME280;24211;49.980;19.776;2023-01-16T08:53:55;98116.81;;;3.26;100.00
38939;BME280;24211;49.980;19.776;2023-01-16T08:56:23;98114.78;;;3.28;100.00
38939;BME280;24211;49.980;19.776;2023-01-16T08:58:50;98122.88;;;3.33;100.00
38939;BME280;24211;49.980;19.776;2023-01-16T09:01:17;98116.38;;;3.36;100.00
38939;BME280;24211;49.980;19.776;2023-01-16T09:03:46;98105.00;;;3.35;100.00
38939;BME280;24211;49.980;19.776;2023-01-16T09:06:13;98111.91;;;3.36;100.00
38939;BME280;24211;49.980;19.776;2023-01-16T09:08:40;98097.69;;;3.37;100.00
38939;BME280;24211;49.980;19.776;2023-01-16T09:11:07;98096.91;;;3.37;100.00
38939;BME280;24211;49.980;19.776;2023-01-16T09:13:53;98092.00;;;3.40;100.00
38939;BME280;24211;49.980;19.776;2023-01-16T09:16:27;98083.06;;;3.41;100.00
38939;BME280;24211;49.980;19.776;2023-01-16T09:18:54;98074.09;;;3.42;100.00
38939;BME280;24211;49.980;19.776;2023-01-16T09:21:21;98063.94;;;3.39;100.00
38939;BME280;24211;49.980;19.776;2023-01-16T09:23:52;98055.84;;;3.41;100.00
38939;BME280;24211;49.980;19.776;2023-01-16T09:26:20;98065.16;;;3.43;100.00
38939;BME280;24211;49.980;19.776;2023-01-16T09:28:48;98054.59;;;3.43;100.00
38939;BME280;24211;49.980;19.776;2023-01-16T09:31:15;98047.28;;;3.45;100.00
38939;BME280;24211;49.980;19.776;2023-01-16T09:33:43;98039.13;;;3.47;100.00
38939;BME280;24211;49.980;19.776;2023-01-16T09:36:10;98030.16;;;3.54;100.00
38939;BME280;24211;49.980;19.776;2023-01-16T09:38:37;98022.88;;;3.56;100.00
38939;BME280;24211;49.980;19.776;2023-01-16T09:41:05;98012.88;;;3.58;100.00
38939;BME280;24211;49.980;19.776;2023-01-16T09:43:43;98003.72;;;3.61;100.00
38939;BME280;24211;49.980;19.776;2023-01-16T09:46:17;98009.38;;;3.64;100.00
38939;BME280;24211;49.980;19.776;2023-01-16T09:48:56;98001.63;;;3.69;100.00
38939;BME280;24211;49.980;19.776;2023-01-16T09:51:35;98002.84;;;3.73;100.00
38939;BME280;24211;49.980;19.776;2023-01-16T09:54:11;97981.84;;;3.78;100.00
38939;BME280;24211;49.980;19.776;2023-01-16T09:57:02;97979.59;;;3.82;100.00
38939;BME280;24211;49.980;19.776;2023-01-16T09:59:53;97971.03;;;3.86;100.00
38939;BME280;24211;49.980;19.776;2023-01-16T10:02:31;97958.41;;;3.88;100.00
38939;BME280;24211;49.980;19.776;2023-01-16T10:05:03;97952.69;;;3.91;100.00
38939;BME280;24211;49.980;19.776;2023-01-16T10:10:43;97942.69;;;4.00;100.00
38939;BME280;24211;49.980;19.776;2023-01-16T10:16:25;97932.19;;;4.12;100.00
38939;BME280;24211;49.980;19.776;2023-01-16T10:19:06;97924.41;;;4.17;100.00
38939;BME280;24211;49.980;19.776;2023-01-16T10:22:05;97912.97;;;4.23;100.00
38939;BME280;24211;49.980;19.776;2023-01-16T10:27:55;97895.81;;;4.32;100.00
38939;BME280;24211;49.980;19.776;2023-01-16T10:30:50;97890.66;;;4.37;100.00
38939;BME280;24211;49.980;19.776;2023-01-16T10:33:40;97889.19;;;4.41;100.00
38939;BME280;24211;49.980;19.776;2023-01-16T10:36:23;97888.75;;;4.44;100.00
38939;BME280;24211;49.980;19.776;2023-01-16T10:38:58;97877.28;;;4.50;100.00
38939;BME280;24211;49.980;19.776;2023-01-16T10:41:33;97866.25;;;4.53;100.00
38939;BME280;24211;49.980;19.776;2023-01-16T10:44:37;97857.75;;;4.51;100.00
38939;BME280;24211;49.980;19.776;2023-01-16T10:47:36;97855.25;;;4.56;100.00
38939;BME280;24211;49.980;19.776;2023-01-16T10:50:24;97846.25;;;4.57;100.00
38939;BME280;24211;49.980;19.776;2023-01-16T10:53:05;97846.34;;;4.69;100.00
38939;BME280;24211;49.980;19.776;2023-01-16T10:55:37;97834.06;;;4.74;100.00
38939;BME280;24211;49.980;19.776;2023-01-16T11:00:58;97810.59;;;4.78;100.00
38939;BME280;24211;49.980;19.776;2023-01-16T11:06:13;97812.22;;;4.79;100.00
38939;BME280;24211;49.980;19.776;2023-01-16T11:08:43;97807.25;;;4.82;100.00
38939;BME280;24211;49.980;19.776;2023-01-16T11:11:14;97805.66;;;4.81;100.00
38939;BME280;24211;49.980;19.776;2023-01-16T11:14:12;97800.38;;;4.81;100.00
38939;BME280;24211;49.980;19.776;2023-01-16T11:17:25;97793.16;;;4.88;100.00
38939;BME280;24211;49.980;19.776;2023-01-16T11:20:28;97788.13;;;4.98;100.00
38939;BME280;24211;49.980;19.776;2023-01-16T11:23:22;97774.88;;;4.98;100.00
38939;BME280;24211;49.980;19.776;2023-01-16T11:25:54;97769.84;;;5.08;100.00
38939;BME280;24211;49.980;19.776;2023-01-16T11:28:29;97784.09;;;5.07;100.00
38939;BME280;24211;49.980;19.776;2023-01-16T11:31:12;97772.38;;;5.15;100.00
38939;BME280;24211;49.980;19.776;2023-01-16T11:33:47;97771.69;;;5.19;100.00
38939;BME280;24211;49.980;19.776;2023-01-16T11:36:17;97764.69;;;5.25;100.00
38939;BME280;24211;49.980;19.776;2023-01-16T11:38:47;97757.69;;;5.31;100.00
38939;BME280;24211;49.980;19.776;2023-01-16T11:41:24;97755.59;;;5.33;100.00
38939;BME280;24211;49.980;19.776;2023-01-16T11:44:18;97745.34;;;5.36;100.00
38939;BME280;24211;49.980;19.776;2023-01-16T11:47:04;97742.00;;;5.41;100.00
38939;BME280;24211;49.980;19.776;2023-01-16T11:49:49;97730.63;;;5.40;100.00
38939;BME280;24211;49.980;19.776;2023-01-16T11:52:20;97716.66;;;5.45;100.00
38939;BME280;24211;49.980;19.776;2023-01-16T11:55:00;97709.41;;;5.52;100.00
38939;BME280;24211;49.980;19.776;2023-01-16T12:08:53;97685.78;;;5.62;100.00
38939;BME280;24211;49.980;19.776;2023-01-16T12:14:43;97670.91;;;5.61;100.00
38939;BME280;24211;49.980;19.776;2023-01-16T12:17:41;97662.50;;;5.64;100.00
38939;BME280;24211;49.980;19.776;2023-01-16T12:21:07;97651.91;;;5.64;100.00
38939;BME280;24211;49.980;19.776;2023-01-16T12:23:53;97647.38;;;5.76;100.00
38939;BME280;24211;49.980;19.776;2023-01-16T12:26:35;97642.53;;;5.73;100.00
38939;BME280;24211;49.980;19.776;2023-01-16T12:29:28;97637.84;;;5.75;100.00
38939;BME280;24211;49.980;19.776;2023-01-16T12:32:21;97648.91;;;5.72;100.00
38939;BME280;24211;49.980;19.776;2023-01-16T12:38:04;97641.88;;;5.66;100.00
38939;BME280;24211;49.980;19.776;2023-01-16T12:40:57;97626.28;;;5.81;100.00
38939;BME280;24211;49.980;19.776;2023-01-16T12:44:07;97620.78;;;5.71;100.00
38939;BME280;24211;49.980;19.776;2023-01-16T12:50:03;97605.31;;;5.79;100.00
38939;BME280;24211;49.980;19.776;2023-01-16T12:58:42;97596.47;;;6.02;100.00
38939;BME280;24211;49.980;19.776;2023-01-16T13:01:25;97592.47;;;6.00;100.00
38939;BME280;24211;49.980;19.776;2023-01-16T13:06:47;97583.88;;;5.81;100.00
38939;BME280;24211;49.980;19.776;2023-01-16T13:12:34;97572.06;;;6.00;100.00
38939;BME280;24211;49.980;19.776;2023-01-16T13:15:29;97560.97;;;6.03;100.00
38939;BME280;24211;49.980;19.776;2023-01-16T13:18:14;97547.44;;;5.88;100.00
38939;BME280;24211;49.980;19.776;2023-01-16T13:20:52;97552.34;;;5.68;100.00
38939;BME280;24211;49.980;19.776;2023-01-16T13:23:25;97549.78;;;5.73;100.00
38939;BME280;24211;49.980;19.776;2023-01-16T13:26:03;97549.97;;;5.83;100.00
38939;BME280;24211;49.980;19.776;2023-01-16T13:29:07;97540.06;;;5.90;100.00
38939;BME280;24211;49.980;19.776;2023-01-16T13:31:39;97531.06;;;5.91;100.00
38939;BME280;24211;49.980;19.776;2023-01-16T13:34:29;97530.09;;;5.97;100.00
38939;BME280;24211;49.980;19.776;2023-01-16T13:37:20;97516.47;;;6.05;100.00
38939;BME280;24211;49.980;19.776;2023-01-16T13:40:29;97514.47;;;6.12;100.00
38939;BME280;24211;49.980;19.776;2023-01-16T13:43:15;97503.13;;;6.00;100.00
38939;BME280;24211;49.980;19.776;2023-01-16T13:46:03;97498.13;;;5.87;100.00
38939;BME280;24211;49.980;19.776;2023-01-16T13:48:34;97491.22;;;5.86;100.00
38939;BME280;24211;49.980;19.776;2023-01-16T13:51:13;97483.63;;;5.78;100.00
38939;BME280;24211;49.980;19.776;2023-01-16T13:53:48;97492.81;;;5.59;100.00
38939;BME280;24211;49.980;19.776;2023-01-16T13:56:22;97476.34;;;5.57;100.00
38939;BME280;24211;49.980;19.776;2023-01-16T13:59:00;97484.13;;;5.75;100.00
38939;BME280;24211;49.980;19.776;2023-01-16T14:01:35;97473.50;;;5.75;100.00
38939;BME280;24211;49.980;19.776;2023-01-16T14:06:47;97470.78;;;5.70;100.00
38939;BME280;24211;49.980;19.776;2023-01-16T14:09:22;97471.97;;;5.79;100.00
38939;BME280;24211;49.980;19.776;2023-01-16T14:12:18;97465.16;;;5.83;100.00
38939;BME280;24211;49.980;19.776;2023-01-16T14:18:19;97451.28;;;5.48;100.00
38939;BME280;24211;49.980;19.776;2023-01-16T14:23:36;97453.72;;;5.66;100.00
38939;BME280;24211;49.980;19.776;2023-01-16T14:29:23;97430.59;;;5.78;100.00
38939;BME280;24211;49.980;19.776;2023-01-16T14:34:46;97436.41;;;5.75;100.00
38939;BME280;24211;49.980;19.776;2023-01-16T14:37:25;97424.84;;;5.81;100.00
38939;BME280;24211;49.980;19.776;2023-01-16T14:40:02;97418.09;;;5.90;100.00
38939;BME280;24211;49.980;19.776;2023-01-16T14:45:35;97412.06;;;5.78;100.00
38939;BME280;24211;49.980;19.776;2023-01-16T14:51:30;97405.22;;;5.65;100.00
38939;BME280;24211;49.980;19.776;2023-01-16T14:54:31;97403.16;;;5.67;100.00
38939;BME280;24211;49.980;19.776;2023-01-16T14:57:23;97413.50;;;5.69;100.00